createdAt,value
2022-08-24T00:00:31.085Z,5.18
2022-08-24T00:02:58.559Z,6.72
2022-08-24T00:05:25.907Z,12.40
2022-08-24T00:07:53.230Z,8.98
2022-08-24T00:10:21.236Z,8.23
2022-08-24T00:12:50.020Z,6.00
2022-08-24T00:15:17.801Z,10.02
2022-08-24T00:17:45.517Z,6.45
2022-08-24T00:20:13.201Z,9.75
2022-08-24T00:22:41.256Z,6.78
2022-08-24T00:25:09.053Z,13.30
2022-08-24T00:27:37.095Z,10.00
2022-08-24T00:30:09.232Z,10.13
2022-08-24T00:32:37.857Z,10.88
2022-08-24T00:35:08.418Z,11.98
2022-08-24T00:37:36.257Z,11.10
2022-08-24T00:40:05.836Z,7.25
2022-08-24T00:42:33.556Z,8.18
2022-08-24T00:45:00.906Z,7.20
2022-08-24T00:47:33.168Z,9.98
2022-08-24T00:50:01.638Z,9.48
2022-08-24T00:52:31.674Z,10.32
2022-08-24T00:55:01.457Z,13.10
2022-08-24T00:57:31.505Z,9.73
2022-08-24T01:00:06.219Z,12.07
2022-08-24T01:02:34.758Z,11.90
2022-08-24T01:05:03.562Z,13.27
2022-08-24T01:07:31.731Z,12.43
2022-08-24T01:10:01.573Z,14.02
2022-08-24T01:12:30.295Z,15.25
2022-08-24T01:14:58.854Z,15.13
2022-08-24T01:17:45.502Z,13.82
2022-08-24T01:20:13.074Z,7.55
2022-08-24T01:22:43.480Z,12.73
2022-08-24T01:25:10.865Z,11.98
2022-08-24T01:27:39.122Z,15.65
2022-08-24T01:30:09.269Z,10.55
2022-08-24T01:32:37.507Z,16.90
2022-08-24T01:35:05.666Z,14.35
2022-08-24T01:37:33.158Z,14.73
2022-08-24T01:40:01.968Z,12.15
2022-08-24T01:42:29.982Z,14.35
2022-08-24T01:44:57.389Z,13.95
2022-08-24T01:47:24.650Z,10.23
2022-08-24T01:49:51.893Z,9.15
2022-08-24T01:52:21.072Z,12.25
2022-08-24T01:54:48.453Z,15.63
2022-08-24T01:57:17.263Z,12.65
2022-08-24T01:59:44.889Z,13.45
2022-08-24T02:02:15.494Z,9.60
2022-08-24T02:04:44.301Z,9.15
2022-08-24T02:07:13.272Z,11.05
2022-08-24T02:09:40.936Z,12.90
2022-08-24T02:12:08.727Z,8.98
2022-08-24T02:14:36.661Z,13.98
2022-08-24T02:17:06.231Z,9.77
2022-08-24T02:19:33.544Z,7.50
2022-08-24T02:22:01.048Z,11.63
2022-08-24T02:24:28.881Z,14.55
2022-08-24T02:26:56.860Z,11.50
2022-08-24T02:29:24.131Z,11.82
2022-08-24T02:31:51.548Z,9.93
2022-08-24T02:34:18.903Z,10.25
2022-08-24T02:36:46.832Z,7.10
2022-08-24T02:39:14.219Z,12.43
2022-08-24T02:41:41.809Z,10.43
2022-08-24T02:44:09.087Z,11.23
2022-08-24T02:46:36.852Z,10.45
2022-08-24T02:49:11.394Z,11.27
2022-08-24T02:51:44.247Z,11.75
2022-08-24T02:54:13.306Z,13.77
2022-08-24T02:56:40.652Z,8.55
2022-08-24T02:59:07.944Z,12.57
2022-08-24T03:01:35.291Z,16.33
2022-08-24T03:04:02.765Z,15.98
2022-08-24T03:06:30.128Z,9.32
2022-08-24T03:08:57.425Z,9.93
2022-08-24T03:11:27.983Z,8.00
2022-08-24T03:13:59.531Z,14.05
2022-08-24T03:16:31.642Z,12.15
2022-08-24T03:18:59.206Z,10.18
2022-08-24T03:21:26.780Z,7.55
2022-08-24T03:23:54.125Z,16.73
2022-08-24T03:26:21.484Z,11.88
2022-08-24T03:28:49.569Z,12.02
2022-08-24T03:31:17.143Z,17.92
2022-08-24T03:33:44.586Z,17.92
2022-08-24T03:36:14.260Z,13.20
2022-08-24T03:38:41.826Z,13.63
2022-08-24T03:41:09.133Z,13.43
2022-08-24T03:43:46.239Z,16.77
2022-08-24T03:46:15.171Z,13.70
2022-08-24T03:48:44.320Z,14.27
2022-08-24T03:51:12.841Z,16.63
2022-08-24T03:53:43.035Z,24.88
2022-08-24T03:56:11.730Z,20.13
2022-08-24T03:58:39.605Z,14.27
2022-08-24T04:01:07.003Z,16.67
2022-08-24T04:03:38.357Z,17.27
2022-08-24T04:06:06.081Z,15.68
2022-08-24T04:08:33.584Z,16.73
2022-08-24T04:11:01.060Z,16.88
2022-08-24T04:13:31.906Z,24.10
2022-08-24T04:16:06.144Z,15.93
2022-08-24T04:18:33.624Z,20.63
2022-08-24T04:21:00.912Z,16.38
2022-08-24T04:23:29.151Z,17.80
2022-08-24T04:26:15.964Z,16.75
2022-08-24T04:28:43.292Z,20.98
2022-08-24T04:31:10.563Z,19.15
2022-08-24T04:33:38.461Z,23.50
2022-08-24T04:36:09.717Z,16.13
2022-08-24T04:38:37.790Z,18.92
2022-08-24T04:41:13.740Z,22.45
2022-08-24T04:43:46.328Z,16.88
2022-08-24T04:46:15.513Z,16.05
2022-08-24T04:48:44.808Z,22.13
2022-08-24T04:51:14.246Z,20.00
2022-08-24T04:53:42.196Z,23.15
2022-08-24T04:56:14.060Z,17.02
2022-08-24T04:58:41.973Z,19.55
2022-08-24T05:01:10.434Z,26.33
2022-08-24T05:03:37.772Z,17.48
2022-08-24T05:06:05.437Z,24.20
2022-08-24T05:08:33.769Z,19.63
2022-08-24T05:11:01.072Z,13.48
2022-08-24T05:13:28.358Z,14.77
2022-08-24T05:15:55.729Z,18.90
2022-08-24T05:18:23.024Z,19.55
2022-08-24T05:20:50.289Z,18.02
2022-08-24T05:23:19.779Z,14.70
2022-08-24T05:25:47.110Z,15.10
2022-08-24T05:28:14.411Z,16.13
2022-08-24T05:30:42.816Z,18.65
2022-08-24T05:33:10.524Z,19.33
2022-08-24T05:35:39.099Z,20.20
2022-08-24T05:38:10.888Z,24.40
2022-08-24T05:40:38.653Z,17.45
2022-08-24T05:43:06.043Z,11.25
2022-08-24T05:45:33.356Z,14.23
2022-08-24T05:48:00.754Z,15.32
2022-08-24T05:50:28.022Z,20.30
2022-08-24T05:52:55.316Z,18.42
2022-08-24T05:55:22.663Z,15.77
2022-08-24T05:57:50.428Z,14.18
2022-08-24T06:00:17.886Z,12.68
2022-08-24T06:02:45.514Z,15.25
2022-08-24T06:05:14.092Z,14.27
2022-08-24T06:07:41.425Z,10.15
2022-08-24T06:10:33.258Z,13.07
2022-08-24T06:12:56.937Z,10.00
2022-08-24T06:15:24.460Z,8.57
2022-08-24T06:17:51.916Z,11.38
2022-08-24T06:20:19.293Z,9.23
2022-08-24T06:22:46.657Z,11.30
2022-08-24T06:25:32.579Z,10.18
2022-08-24T06:27:59.877Z,7.70
2022-08-24T06:30:30.246Z,8.30
2022-08-24T06:33:02.037Z,8.48
2022-08-24T06:35:29.708Z,8.82
2022-08-24T06:37:57.465Z,7.22
2022-08-24T06:40:25.970Z,7.22
2022-08-24T06:42:53.496Z,8.93
2022-08-24T06:45:22.151Z,10.23
2022-08-24T06:47:49.511Z,7.55
2022-08-24T06:50:16.789Z,8.23
2022-08-24T06:52:45.155Z,7.53
2022-08-24T06:55:12.458Z,8.32
2022-08-24T06:57:39.740Z,3.58
2022-08-24T07:00:09.612Z,2.28
2022-08-24T07:02:36.977Z,7.38
2022-08-24T07:05:04.384Z,3.15
2022-08-24T07:07:31.676Z,4.03
2022-08-24T07:10:00.941Z,4.68
2022-08-24T07:12:28.284Z,3.70
2022-08-24T07:14:55.655Z,4.20
2022-08-24T07:17:23.016Z,3.20
2022-08-24T07:19:51.008Z,2.17
2022-08-24T07:22:18.299Z,5.00
2022-08-24T07:24:46.605Z,7.22
2022-08-24T07:27:14.253Z,2.85
2022-08-24T07:29:52.787Z,6.07
2022-08-24T07:32:28.785Z,3.35
2022-08-24T07:34:56.185Z,2.42
2022-08-24T07:37:23.438Z,3.65
2022-08-24T07:39:51.035Z,5.75
2022-08-24T07:42:26.942Z,3.08
2022-08-24T07:44:58.680Z,4.22
2022-08-24T07:47:47.247Z,4.75
2022-08-24T07:50:13.805Z,3.40
2022-08-24T07:52:41.662Z,3.58
2022-08-24T07:55:09.470Z,2.47
2022-08-24T07:57:38.431Z,1.20
2022-08-24T08:00:10.926Z,1.10
2022-08-24T08:02:39.189Z,2.17
2022-08-24T08:05:07.346Z,1.85
2022-08-24T08:07:34.740Z,1.58
2022-08-24T08:10:02.516Z,1.45
2022-08-24T08:12:30.458Z,2.45
2022-08-24T08:14:57.776Z,2.47
2022-08-24T08:17:25.137Z,1.35
2022-08-24T08:19:52.429Z,5.22
2022-08-24T08:22:38.400Z,4.80
2022-08-24T08:25:08.055Z,0.85
2022-08-24T08:27:36.011Z,0.63
2022-08-24T08:30:06.295Z,1.38
2022-08-24T08:32:34.052Z,3.47
2022-08-24T08:35:02.353Z,2.60
2022-08-24T08:37:31.205Z,2.80
2022-08-24T08:39:58.667Z,2.05
2022-08-24T08:42:27.741Z,0.82
2022-08-24T08:45:04.092Z,1.58
2022-08-24T08:47:50.060Z,3.00
2022-08-24T08:50:23.627Z,1.85
2022-08-24T08:52:59.990Z,0.82
2022-08-24T08:55:32.052Z,1.92
2022-08-24T08:58:09.489Z,3.25
2022-08-24T09:00:45.801Z,1.80
2022-08-24T09:03:24.184Z,2.67
2022-08-24T09:06:00.773Z,1.65
2022-08-24T09:08:31.119Z,1.33
2022-08-24T09:11:05.844Z,2.28
2022-08-24T09:13:42.520Z,0.90
2022-08-24T09:16:12.961Z,0.77
2022-08-24T09:18:47.913Z,1.85
2022-08-24T09:21:15.287Z,2.80
2022-08-24T09:23:42.542Z,0.30
2022-08-24T09:26:29.111Z,2.13
2022-08-24T09:29:05.516Z,0.95
2022-08-24T09:31:43.637Z,0.10
2022-08-24T09:34:16.280Z,1.85
2022-08-24T09:37:00.853Z,1.33
2022-08-24T09:39:43.249Z,1.48
2022-08-24T09:42:34.317Z,0.90
2022-08-24T09:45:02.035Z,0.75
2022-08-24T09:47:48.047Z,0.20
2022-08-24T09:50:34.593Z,1.13
2022-08-24T09:53:02.322Z,0.52
2022-08-24T09:55:32.624Z,0.20
2022-08-24T09:58:01.599Z,0.20
2022-08-24T10:00:38.602Z,0.55
2022-08-24T10:03:33.990Z,0.35
2022-08-24T10:06:10.055Z,0.93
2022-08-24T10:08:40.278Z,1.85
2022-08-24T10:11:10.529Z,0.90
2022-08-24T10:13:53.173Z,0.50
2022-08-24T10:18:51.095Z,0.65
2022-08-24T10:21:27.519Z,0.57
2022-08-24T10:24:16.425Z,0.82
2022-08-24T10:27:02.296Z,0.77
2022-08-24T10:29:29.563Z,1.30
2022-08-24T10:31:56.914Z,1.58
2022-08-24T10:34:47.496Z,1.83
2022-08-24T10:37:35.813Z,2.17
2022-08-24T10:40:33.116Z,1.77
2022-08-24T10:43:23.941Z,0.60
2022-08-24T10:48:33.246Z,1.42
2022-08-24T10:51:28.348Z,2.88
2022-08-24T10:53:56.955Z,1.10
2022-08-24T10:56:32.975Z,1.80
2022-08-24T10:59:08.898Z,2.55
2022-08-24T11:01:37.468Z,1.23
2022-08-24T11:04:09.825Z,1.38
2022-08-24T11:06:37.053Z,0.88
2022-08-24T11:09:07.762Z,1.38
2022-08-24T11:11:36.962Z,1.23
2022-08-24T11:14:29.204Z,1.02
2022-08-24T11:17:16.004Z,1.70
2022-08-24T11:19:43.545Z,0.88
2022-08-24T11:22:29.429Z,0.75
2022-08-24T11:24:59.690Z,1.10
2022-08-24T11:27:30.936Z,0.40
2022-08-24T11:29:59.817Z,1.08
2022-08-24T11:32:39.065Z,1.10
2022-08-24T11:35:10.914Z,3.55
2022-08-24T11:37:39.760Z,0.55
2022-08-24T11:40:07.849Z,0.32
2022-08-24T11:42:38.122Z,0.95
2022-08-24T11:45:08.432Z,2.47
2022-08-24T11:47:43.473Z,2.03
2022-08-24T11:50:31.077Z,1.17
2022-08-24T11:53:04.500Z,0.70
2022-08-24T11:56:00.310Z,0.93
2022-08-24T11:58:41.094Z,2.20
2022-08-24T12:01:16.734Z,3.55
2022-08-24T12:03:54.042Z,0.68
2022-08-24T12:06:36.530Z,1.95
2022-08-24T12:09:10.049Z,1.70
2022-08-24T12:11:44.318Z,2.15
2022-08-24T12:14:14.937Z,0.70
2022-08-24T12:16:49.720Z,1.00
2022-08-24T12:19:31.193Z,1.38
2022-08-24T12:22:00.611Z,1.77
2022-08-24T12:24:32.235Z,0.50
2022-08-24T12:27:03.852Z,3.78
2022-08-24T12:29:39.374Z,2.72
2022-08-24T12:32:12.785Z,0.73
2022-08-24T12:34:43.246Z,1.00
2022-08-24T12:37:16.388Z,0.75
2022-08-24T12:39:55.279Z,0.50
2022-08-24T12:42:31.649Z,0.88
2022-08-24T12:45:05.421Z,0.75
2022-08-24T12:47:36.258Z,0.95
2022-08-24T12:50:09.685Z,0.22
2022-08-24T12:52:36.930Z,3.05
2022-08-24T12:55:16.589Z,0.55
2022-08-24T12:57:54.039Z,0.22
2022-08-24T13:00:25.108Z,0.50
2022-08-24T13:03:01.619Z,3.30
2022-08-24T13:05:39.889Z,1.33
2022-08-24T13:08:16.597Z,0.40
2022-08-24T13:10:53.847Z,3.05
2022-08-24T13:13:22.474Z,0.22
2022-08-24T13:15:50.053Z,0.85
2022-08-24T13:18:17.369Z,0.45
2022-08-24T13:20:44.723Z,0.20
2022-08-24T13:23:12.886Z,2.30
2022-08-24T13:25:52.090Z,0.75
2022-08-24T13:28:25.038Z,0.73
2022-08-24T13:31:10.806Z,0.30
2022-08-24T13:33:38.100Z,1.02
2022-08-24T13:36:28.775Z,0.70
2022-08-24T13:39:06.721Z,0.60
2022-08-24T13:41:42.775Z,0.75
2022-08-24T13:44:16.475Z,0.52
2022-08-24T13:46:51.903Z,0.80
2022-08-24T13:49:29.625Z,0.47
2022-08-24T13:52:19.993Z,1.52
2022-08-24T13:54:50.038Z,4.53
2022-08-24T13:57:28.608Z,1.52
2022-08-24T13:59:56.157Z,0.80
2022-08-24T14:02:41.971Z,1.00
2022-08-24T14:05:09.326Z,0.50
2022-08-24T14:07:52.003Z,0.40
2022-08-24T14:10:34.406Z,1.48
2022-08-24T14:13:15.691Z,0.60
2022-08-24T14:15:46.260Z,1.05
2022-08-24T14:18:13.535Z,0.40
2022-08-24T14:21:05.663Z,0.30
2022-08-24T14:23:46.187Z,0.40
2022-08-24T14:26:32.440Z,1.45
2022-08-24T14:29:18.427Z,0.20
2022-08-24T14:31:58.515Z,0.20
2022-08-24T14:34:27.466Z,0.30
2022-08-24T14:36:57.641Z,0.57
2022-08-24T14:39:30.948Z,1.38
2022-08-24T14:42:03.577Z,0.70
2022-08-24T14:44:46.223Z,0.88
2022-08-24T14:50:03.034Z,0.80
2022-08-24T14:52:30.576Z,0.40
2022-08-24T14:55:13.688Z,0.63
2022-08-24T14:57:59.774Z,0.82
2022-08-24T15:00:45.801Z,1.45
2022-08-24T15:03:18.968Z,0.38
2022-08-24T15:06:09.658Z,1.38
2022-08-24T15:08:43.026Z,0.80
2022-08-24T15:11:15.797Z,0.90
2022-08-24T15:13:43.138Z,0.47
2022-08-24T15:16:14.144Z,0.60
2022-08-24T15:19:00.078Z,1.13
2022-08-24T15:21:50.295Z,1.08
2022-08-24T15:24:36.143Z,0.60
2022-08-24T15:27:19.557Z,3.38
2022-08-24T15:29:48.991Z,0.63
2022-08-24T15:32:16.761Z,2.22
2022-08-24T15:34:48.165Z,0.57
2022-08-24T15:37:17.346Z,1.35
2022-08-24T15:39:44.904Z,1.23
2022-08-24T15:42:14.573Z,1.05
2022-08-24T15:44:46.727Z,1.00
2022-08-24T15:47:19.648Z,2.40
2022-08-24T15:49:48.755Z,1.55
2022-08-24T15:52:34.587Z,1.05
2022-08-24T15:55:03.461Z,1.13
2022-08-24T15:57:41.319Z,1.30
2022-08-24T16:00:08.730Z,0.93
2022-08-24T16:02:38.862Z,2.05
2022-08-24T16:05:21.756Z,5.35
2022-08-24T16:08:04.830Z,2.33
2022-08-24T16:10:49.033Z,1.52
2022-08-24T16:13:19.402Z,1.10
2022-08-24T16:15:48.262Z,3.58
2022-08-24T16:18:16.912Z,0.90
2022-08-24T16:20:44.440Z,1.48
2022-08-24T16:23:13.573Z,1.42
2022-08-24T16:25:44.156Z,0.63
2022-08-24T16:28:18.610Z,1.08
2022-08-24T16:30:48.252Z,0.75
2022-08-24T16:33:39.199Z,1.67
2022-08-24T16:36:20.814Z,0.75
2022-08-24T16:38:49.723Z,1.20
2022-08-24T16:41:21.661Z,0.93
2022-08-24T16:43:49.316Z,6.40
2022-08-24T16:46:21.364Z,1.30
2022-08-24T16:48:48.845Z,1.33
2022-08-24T16:51:16.151Z,1.10
2022-08-24T16:53:43.733Z,3.53
2022-08-24T16:56:14.822Z,1.02
2022-08-24T16:58:44.269Z,0.90
2022-08-24T17:01:11.643Z,2.25
2022-08-24T17:03:39.298Z,0.90
2022-08-24T17:06:06.870Z,1.00
2022-08-24T17:08:34.268Z,2.33
2022-08-24T17:11:04.433Z,1.05
2022-08-24T17:13:48.977Z,0.73
2022-08-24T17:16:18.175Z,1.15
2022-08-24T17:18:45.505Z,2.28
2022-08-24T17:21:12.836Z,1.55
2022-08-24T17:23:41.456Z,1.50
2022-08-24T17:26:20.178Z,2.53
2022-08-24T17:28:48.643Z,2.63
2022-08-24T17:31:16.086Z,0.93
2022-08-24T17:33:43.403Z,2.30
2022-08-24T17:36:15.342Z,5.97
2022-08-24T17:38:49.435Z,1.08
2022-08-24T17:41:20.617Z,3.78
2022-08-24T17:43:47.885Z,3.30
2022-08-24T17:46:15.563Z,3.58
2022-08-24T17:48:44.229Z,1.23
2022-08-24T17:51:11.645Z,1.05
2022-08-24T17:53:38.920Z,4.30
2022-08-24T17:56:10.055Z,4.32
2022-08-24T17:58:57.494Z,1.15
2022-08-24T18:01:25.500Z,6.50
2022-08-24T18:03:52.917Z,1.08
2022-08-24T18:06:21.644Z,1.30
2022-08-24T18:08:49.150Z,2.08
2022-08-24T18:11:16.457Z,1.70
2022-08-24T18:13:43.929Z,1.00
2022-08-24T18:16:15.680Z,2.03
2022-08-24T18:18:46.497Z,1.17
2022-08-24T18:21:14.067Z,1.38
2022-08-24T18:23:43.579Z,0.80
2022-08-24T18:26:11.665Z,2.97
2022-08-24T18:28:39.090Z,0.77
2022-08-24T18:31:10.629Z,5.47
2022-08-24T18:33:37.979Z,1.40
2022-08-24T18:36:06.639Z,1.45
2022-08-24T18:38:34.063Z,1.45
2022-08-24T18:41:02.273Z,2.83
2022-08-24T18:43:30.286Z,1.20
2022-08-24T18:45:57.779Z,2.08
2022-08-24T18:48:25.154Z,2.85
2022-08-24T18:50:53.113Z,0.85
2022-08-24T18:53:20.814Z,1.45
2022-08-24T18:55:49.375Z,1.45
2022-08-24T18:58:16.831Z,0.95
2022-08-24T19:00:44.360Z,1.10
2022-08-24T19:03:13.582Z,4.93
2022-08-24T19:05:41.573Z,3.40
2022-08-24T19:08:12.929Z,5.70
2022-08-24T19:10:40.291Z,2.55
2022-08-24T19:13:10.392Z,3.33
2022-08-24T19:15:40.193Z,2.13
2022-08-24T19:18:09.669Z,1.10
2022-08-24T19:20:38.054Z,2.40
2022-08-24T19:23:07.321Z,2.13
2022-08-24T19:25:35.266Z,4.53
2022-08-24T19:28:02.708Z,1.92
2022-08-24T19:30:30.026Z,1.45
2022-08-24T19:32:57.717Z,2.20
2022-08-24T19:35:25.136Z,1.98
2022-08-24T19:37:52.499Z,1.00
2022-08-24T19:40:23.002Z,2.55
2022-08-24T19:42:53.567Z,1.65
2022-08-24T19:45:43.376Z,1.42
2022-08-24T19:48:11.613Z,1.40
2022-08-24T19:50:39.237Z,1.20
2022-08-24T19:53:07.080Z,0.80
2022-08-24T19:55:34.613Z,1.65
2022-08-24T19:58:05.396Z,1.60
2022-08-24T20:00:37.986Z,2.05
2022-08-24T20:03:06.289Z,0.65
2022-08-24T20:05:36.477Z,1.35
2022-08-24T20:08:03.942Z,3.38
2022-08-24T20:10:31.959Z,1.55
2022-08-24T20:12:59.405Z,1.23
2022-08-24T20:15:26.774Z,2.30
2022-08-24T20:17:55.799Z,1.60
2022-08-24T20:20:23.995Z,1.52
2022-08-24T20:22:51.972Z,1.67
2022-08-24T20:25:20.394Z,3.17
2022-08-24T20:27:47.801Z,1.92
2022-08-24T20:30:16.108Z,5.13
2022-08-24T20:32:43.701Z,2.30
2022-08-24T20:35:11.308Z,4.53
2022-08-24T20:37:40.995Z,2.28
2022-08-24T20:40:09.940Z,2.58
2022-08-24T20:42:38.464Z,1.88
2022-08-24T20:45:06.236Z,2.92
2022-08-24T20:47:33.529Z,5.53
2022-08-24T20:50:00.777Z,3.88
2022-08-24T20:52:28.053Z,10.23
2022-08-24T20:54:55.423Z,2.13
2022-08-24T20:57:23.184Z,2.40
2022-08-24T20:59:50.533Z,1.40
2022-08-24T21:02:17.818Z,3.92
2022-08-24T21:04:45.489Z,2.08
2022-08-24T21:07:13.134Z,3.05
2022-08-24T21:09:40.675Z,1.33
2022-08-24T21:12:08.911Z,4.72
2022-08-24T21:14:36.269Z,1.25
2022-08-24T21:17:05.800Z,1.20
2022-08-24T21:19:34.287Z,2.15
2022-08-24T21:22:01.716Z,3.03
2022-08-24T21:24:29.085Z,1.83
2022-08-24T21:26:56.338Z,3.30
2022-08-24T21:29:23.785Z,1.30
2022-08-24T21:32:09.637Z,1.20
2022-08-24T21:34:42.882Z,1.70
2022-08-24T21:37:12.158Z,2.25
2022-08-24T21:39:39.735Z,1.33
2022-08-24T21:42:07.117Z,1.40
2022-08-24T21:44:34.429Z,2.58
2022-08-24T21:47:03.664Z,1.35
2022-08-24T21:49:31.097Z,3.50
2022-08-24T21:51:58.517Z,2.72
2022-08-24T21:54:26.363Z,2.38
2022-08-24T21:56:54.095Z,2.88
2022-08-24T21:59:21.468Z,1.35
2022-08-24T22:01:48.797Z,5.78
2022-08-24T22:04:16.173Z,1.25
2022-08-24T22:06:43.444Z,3.65
2022-08-24T22:09:10.722Z,3.70
2022-08-24T22:11:38.029Z,2.38
2022-08-24T22:14:05.520Z,3.33
2022-08-24T22:16:32.916Z,1.17
2022-08-24T22:19:04.337Z,2.45
2022-08-24T22:21:36.068Z,2.45
2022-08-24T22:24:03.769Z,5.43
2022-08-24T22:26:31.064Z,1.77
2022-08-24T22:28:58.319Z,3.00
2022-08-24T22:31:30.569Z,4.30
2022-08-24T22:33:59.367Z,5.32
2022-08-24T22:36:27.591Z,1.35
2022-08-24T22:38:56.050Z,6.13
2022-08-24T22:41:23.541Z,2.55
2022-08-24T22:44:10.239Z,1.95
2022-08-24T22:46:37.641Z,5.22
2022-08-24T22:49:05.836Z,2.90
2022-08-24T22:51:33.426Z,3.88
2022-08-24T22:54:00.886Z,5.10
2022-08-24T22:56:29.776Z,2.58
2022-08-24T22:58:57.384Z,3.83
2022-08-24T23:01:35.276Z,2.05
2022-08-24T23:04:04.306Z,1.33
2022-08-24T23:06:31.855Z,6.68
2022-08-24T23:08:59.138Z,3.97
2022-08-24T23:11:29.648Z,2.55
2022-08-24T23:13:58.171Z,5.32
2022-08-24T23:16:26.879Z,2.40
2022-08-24T23:19:13.446Z,5.32
2022-08-24T23:21:40.951Z,10.73
2022-08-24T23:24:09.602Z,4.63
2022-08-24T23:26:37.678Z,4.38
2022-08-24T23:29:05.837Z,3.90
2022-08-24T23:31:33.176Z,5.43
2022-08-24T23:34:00.760Z,6.82
2022-08-24T23:36:28.386Z,3.70
2022-08-24T23:38:57.222Z,2.53
2022-08-24T23:41:26.141Z,6.18
2022-08-24T23:43:54.235Z,1.70
2022-08-24T23:46:21.724Z,3.53
2022-08-24T23:48:55.114Z,4.25
2022-08-24T23:51:23.804Z,2.75
2022-08-24T23:53:51.361Z,2.03
2022-08-24T23:56:25.316Z,4.18
2022-08-24T23:58:54.141Z,3.50
